createdAt,value
2018-01-04T00:00:26.687Z,7.90
2018-01-04T00:02:54.961Z,7.90
2018-01-04T00:05:27.940Z,7.90
2018-01-04T00:07:55.531Z,7.90
2018-01-04T00:10:29.999Z,7.90
2018-01-04T00:12:57.558Z,7.90
2018-01-04T00:15:25.076Z,7.90
2018-01-04T00:17:52.611Z,7.90
2018-01-04T00:20:24.898Z,7.90
2018-01-04T00:22:53.450Z,7.90
2018-01-04T00:25:25.501Z,7.90
2018-01-04T00:27:52.961Z,7.90
2018-01-04T00:30:26.657Z,7.90
2018-01-04T00:32:54.176Z,7.90
2018-01-04T00:35:21.632Z,7.90
2018-01-04T00:37:49.866Z,7.90
2018-01-04T00:40:17.356Z,7.90
2018-01-04T00:42:44.820Z,7.90
2018-01-04T00:45:14.307Z,7.80
2018-01-04T00:47:41.780Z,7.80
2018-01-04T00:50:09.241Z,7.80
2018-01-04T00:52:36.761Z,7.80
2018-01-04T00:55:04.248Z,7.80
2018-01-04T00:57:31.731Z,7.80
2018-01-04T00:59:59.182Z,7.80
2018-01-04T01:02:26.652Z,7.80
2018-01-04T01:04:54.149Z,7.80
2018-01-04T01:07:22.897Z,7.70
2018-01-04T01:09:50.362Z,7.70
2018-01-04T01:12:17.866Z,7.70
2018-01-04T01:14:45.322Z,7.80
2018-01-04T01:17:12.947Z,7.80
2018-01-04T01:19:40.701Z,7.70
2018-01-04T01:22:08.181Z,7.80
2018-01-04T01:24:35.643Z,7.80
2018-01-04T01:27:03.109Z,7.80
2018-01-04T01:29:30.565Z,7.70
2018-01-04T01:31:58.038Z,7.70
2018-01-04T01:34:25.529Z,7.70
2018-01-04T01:36:52.998Z,7.70
2018-01-04T01:39:20.450Z,7.80
2018-01-04T01:41:48.695Z,7.80
2018-01-04T01:44:16.169Z,7.80
2018-01-04T01:46:43.641Z,7.80
2018-01-04T01:49:16.094Z,7.80
2018-01-04T01:51:43.573Z,7.80
2018-01-04T01:54:11.052Z,7.80
2018-01-04T01:56:38.520Z,7.90
2018-01-04T01:59:05.982Z,7.90
2018-01-04T02:01:33.438Z,7.80
2018-01-04T02:04:00.905Z,7.90
2018-01-04T02:06:28.381Z,7.80
2018-01-04T02:08:56.632Z,7.80
2018-01-04T02:11:24.081Z,7.80
2018-01-04T02:13:51.588Z,7.90
2018-01-04T02:16:22.417Z,7.90
2018-01-04T02:19:03.211Z,7.80
2018-01-04T02:21:44.666Z,7.90
2018-01-04T02:24:31.813Z,7.90
2018-01-04T02:32:56.692Z,7.80
2018-01-04T02:35:50.047Z,7.80
2018-01-04T02:38:43.107Z,7.70
2018-01-04T02:46:12.003Z,7.60
2018-01-04T02:48:39.717Z,7.40
2018-01-04T02:51:09.616Z,7.30
2018-01-04T02:53:39.096Z,7.30
2018-01-04T02:56:06.571Z,7.30
2018-01-04T02:58:34.037Z,7.30
2018-01-04T03:01:01.556Z,7.30
2018-01-04T03:03:29.069Z,7.20
2018-01-04T03:05:58.144Z,7.20
2018-01-04T03:08:25.626Z,7.20
2018-01-04T03:10:53.864Z,7.20
2018-01-04T03:13:21.324Z,7.20
2018-01-04T03:15:48.834Z,7.10
2018-01-04T03:18:22.597Z,7.00
2018-01-04T03:20:50.058Z,7.00
2018-01-04T03:23:23.253Z,7.00
2018-01-04T03:50:21.044Z,6.80
2018-01-04T03:52:48.547Z,6.80
2018-01-04T03:55:22.180Z,6.80
2018-01-04T03:57:55.624Z,6.80
2018-01-04T04:43:43.689Z,6.70
2018-01-04T04:46:12.145Z,6.70
2018-01-04T04:48:39.616Z,6.70
2018-01-04T04:51:07.108Z,6.70
2018-01-04T04:53:35.335Z,6.70
2018-01-04T04:56:02.812Z,6.60
2018-01-04T04:58:30.690Z,6.60
2018-01-04T06:47:49.897Z,6.70
2018-01-04T06:50:17.369Z,6.80
2018-01-04T06:52:44.887Z,6.80
2018-01-04T06:55:12.398Z,6.80
2018-01-04T06:57:39.817Z,6.80
2018-01-04T07:00:08.596Z,6.80
2018-01-04T07:02:36.268Z,6.80
2018-01-04T07:05:03.769Z,6.80
2018-01-04T07:07:32.021Z,6.80
2018-01-04T07:09:59.780Z,6.80
2018-01-04T07:12:27.256Z,6.80
2018-01-04T07:14:54.718Z,6.90
2018-01-04T07:17:22.193Z,6.90
2018-01-04T07:19:50.497Z,6.90
2018-01-04T07:22:18.013Z,6.90
2018-01-04T07:24:45.485Z,6.90
2018-01-04T07:27:12.933Z,6.90
2018-01-04T07:29:40.410Z,7.00
2018-01-04T07:32:08.246Z,7.00
2018-01-04T07:34:35.699Z,7.00
2018-01-04T07:37:03.892Z,7.00
2018-01-04T07:39:31.357Z,7.00
2018-01-04T07:41:59.658Z,7.10
2018-01-04T07:44:27.119Z,7.00
2018-01-04T07:46:54.624Z,7.10
2018-01-04T07:49:22.969Z,7.10
2018-01-04T07:51:50.435Z,7.10
2018-01-04T07:54:17.897Z,7.10
2018-01-04T07:56:45.736Z,7.10
2018-01-04T07:59:13.248Z,7.20
2018-01-04T08:01:40.698Z,7.30
2018-01-04T08:04:08.156Z,7.30
2018-01-04T08:06:35.632Z,7.30
2018-01-04T08:09:03.092Z,7.30
2018-01-04T08:11:31.322Z,7.40
2018-01-04T08:14:01.148Z,7.40
2018-01-04T08:16:28.602Z,7.40
2018-01-04T08:18:56.116Z,7.50
2018-01-04T08:21:24.375Z,7.50
2018-01-04T08:23:51.856Z,7.50
2018-01-04T08:26:19.334Z,7.60
2018-01-04T08:28:47.575Z,7.50
2018-01-04T08:31:15.051Z,7.50
2018-01-04T08:33:42.562Z,7.50
2018-01-04T08:36:10.030Z,7.60
2018-01-04T08:38:37.508Z,7.60
2018-01-04T08:41:04.989Z,7.70
2018-01-04T08:43:32.447Z,7.70
2018-01-04T08:45:59.903Z,7.70
2018-01-04T08:48:27.393Z,7.80
2018-01-04T08:50:54.851Z,7.80
2018-01-04T08:53:22.308Z,7.80
2018-01-04T08:55:49.765Z,7.80
2018-01-04T08:58:17.246Z,7.90
2018-01-04T09:00:44.746Z,7.90
2018-01-04T09:03:12.217Z,7.90
2018-01-04T09:05:40.482Z,7.90
2018-01-04T09:08:08.700Z,7.90
2018-01-04T09:10:38.203Z,7.90
2018-01-04T09:13:05.674Z,8.00
2018-01-04T09:15:33.156Z,8.10
2018-01-04T09:18:00.677Z,8.10
2018-01-04T09:20:28.850Z,8.10
2018-01-04T09:22:56.319Z,8.10
2018-01-04T09:25:23.805Z,8.10
2018-01-04T09:27:51.277Z,8.20
2018-01-04T09:30:19.750Z,8.20
2018-01-04T09:32:47.230Z,8.20
2018-01-04T09:35:14.696Z,8.30
2018-01-04T09:37:42.163Z,8.30
2018-01-04T09:40:09.636Z,8.30
2018-01-04T09:42:37.118Z,8.30
2018-01-04T09:45:05.365Z,8.40
2018-01-04T09:47:32.834Z,8.30
2018-01-04T09:50:00.281Z,8.40
2018-01-04T09:52:27.762Z,8.40
2018-01-04T10:01:00.238Z,8.50
2018-01-04T10:03:28.425Z,8.40
2018-01-04T10:05:57.621Z,8.50
2018-01-04T10:08:26.909Z,8.50
2018-01-04T10:10:54.494Z,8.50
2018-01-04T10:13:22.845Z,8.60
2018-01-04T10:15:50.800Z,8.50
2018-01-04T10:18:18.381Z,8.60
2018-01-04T10:20:45.958Z,8.60
2018-01-04T10:23:15.099Z,8.60
2018-01-04T10:25:44.694Z,8.60
2018-01-04T10:28:13.707Z,8.70
2018-01-04T10:30:42.053Z,8.60
2018-01-04T10:33:10.245Z,8.60
2018-01-04T10:35:37.830Z,8.70
2018-01-04T10:38:06.205Z,8.70
2018-01-04T10:40:34.877Z,8.70
2018-01-04T10:43:02.417Z,8.70
2018-01-04T10:45:30.258Z,8.70
2018-01-04T10:47:59.455Z,8.80
2018-01-04T10:50:27.023Z,8.80
2018-01-04T10:52:54.933Z,8.80
2018-01-04T10:55:22.538Z,8.90
2018-01-04T10:57:52.230Z,8.80
2018-01-04T11:00:19.841Z,8.90
2018-01-04T11:02:47.765Z,8.90
2018-01-04T11:05:16.640Z,9.00
2018-01-04T11:07:44.596Z,8.90
2018-01-04T11:10:12.329Z,9.00
2018-01-04T11:12:43.020Z,9.10
2018-01-04T11:15:10.733Z,9.10
2018-01-04T11:17:39.716Z,9.20
2018-01-04T11:20:08.439Z,9.20
2018-01-04T11:22:36.722Z,9.20
2018-01-04T11:25:04.338Z,9.20
2018-01-04T11:27:32.583Z,9.30
2018-01-04T11:30:00.430Z,9.40
2018-01-04T11:32:27.980Z,9.40
2018-01-04T11:34:55.573Z,9.50
2018-01-04T11:37:23.152Z,9.50
2018-01-04T11:39:50.954Z,9.50
2018-01-04T11:42:19.248Z,9.60
2018-01-04T11:44:47.587Z,9.60
2018-01-04T11:47:15.806Z,9.70
2018-01-04T11:49:43.415Z,9.70
2018-01-04T11:52:12.358Z,9.80
2018-01-04T11:54:40.972Z,9.80
2018-01-04T11:57:09.772Z,9.90
2018-01-04T11:59:37.807Z,9.90
2018-01-04T12:02:05.404Z,9.90
2018-01-04T12:04:33.736Z,10.00
2018-01-04T12:07:01.329Z,10.00
2018-01-04T12:09:28.893Z,10.10
2018-01-04T12:11:56.739Z,10.10
2018-01-04T12:14:24.311Z,10.20
2018-01-04T12:16:52.473Z,10.20
2018-01-04T12:19:20.070Z,10.20
2018-01-04T12:21:47.977Z,10.30
2018-01-04T12:24:16.287Z,10.30
2018-01-04T12:26:43.882Z,10.40
2018-01-04T12:29:11.427Z,10.40
2018-01-04T12:31:40.448Z,10.50
2018-01-04T12:34:08.901Z,10.50
2018-01-04T12:36:38.598Z,10.50
2018-01-04T12:39:09.209Z,10.60
2018-01-04T12:41:37.749Z,10.60
2018-01-04T12:44:05.933Z,10.60
2018-01-04T12:46:34.215Z,10.60
2018-01-04T12:49:02.342Z,10.70
2018-01-04T12:51:29.909Z,10.80
2018-01-04T12:54:04.453Z,10.80
2018-01-04T12:56:32.191Z,10.80
2018-01-04T12:59:00.930Z,10.90
2018-01-04T13:01:29.012Z,10.90
2018-01-04T13:03:56.630Z,11.00
2018-01-04T13:06:25.018Z,11.10
2018-01-04T13:08:53.401Z,11.40
2018-01-04T15:36:15.491Z,12.50
2018-01-04T15:38:43.775Z,12.50
2018-01-04T15:41:12.162Z,12.50
2018-01-04T15:43:40.591Z,12.40
2018-01-04T15:46:09.888Z,12.50
2018-01-04T15:48:37.459Z,12.40
2018-01-04T15:51:06.472Z,12.50
2018-01-04T15:53:34.001Z,12.50
2018-01-04T15:56:05.599Z,12.50
2018-01-04T15:58:33.256Z,12.40
2018-01-04T16:01:03.968Z,12.40
2018-01-04T16:03:31.584Z,12.40
2018-01-04T16:05:59.100Z,12.40
2018-01-04T16:08:27.356Z,12.40
2018-01-04T16:10:55.533Z,12.30
2018-01-04T16:13:23.076Z,12.40
2018-01-04T16:15:51.033Z,12.40
2018-01-04T16:18:19.744Z,12.30
2018-01-04T16:20:48.721Z,12.30
2018-01-04T16:23:17.454Z,12.30
2018-01-04T16:25:45.804Z,12.20
2018-01-04T16:28:13.342Z,12.20
2018-01-04T16:30:41.671Z,12.10
2018-01-04T16:33:09.227Z,12.10
2018-01-04T16:35:39.577Z,12.10
2018-01-04T16:38:09.310Z,12.10
2018-01-04T16:40:38.176Z,12.00
2018-01-04T16:43:05.687Z,12.10
2018-01-04T16:45:34.221Z,12.10
2018-01-04T16:48:02.445Z,12.00
2018-01-04T16:50:32.428Z,12.00
2018-01-04T16:53:00.049Z,12.00
2018-01-04T16:55:27.712Z,12.00
2018-01-04T16:57:56.181Z,12.00
2018-01-04T17:00:27.957Z,12.00
2018-01-04T17:02:56.121Z,12.00
2018-01-04T17:05:24.624Z,12.00
2018-01-04T17:07:52.674Z,12.00
2018-01-04T17:10:22.416Z,12.00
2018-01-04T17:12:50.161Z,12.00
2018-01-04T17:15:18.677Z,11.90
2018-01-04T17:17:46.185Z,11.90
2018-01-04T17:20:13.682Z,12.00
2018-01-04T17:22:41.190Z,12.00
2018-01-04T17:25:08.733Z,12.00
2018-01-04T17:27:37.123Z,12.00
2018-01-04T17:30:06.039Z,11.90
2018-01-04T17:32:33.580Z,11.90
2018-01-04T17:35:01.084Z,11.90
2018-01-04T17:37:29.851Z,11.90
2018-01-04T17:39:57.359Z,11.90
2018-01-04T17:42:25.629Z,11.90
2018-01-04T17:44:53.960Z,11.90
2018-01-04T17:47:21.468Z,11.90
2018-01-04T17:49:48.923Z,11.90
2018-01-04T17:52:16.483Z,11.90
2018-01-04T17:54:44.044Z,11.90
2018-01-04T17:57:11.569Z,11.90
2018-01-04T17:59:39.105Z,11.90
2018-01-04T18:02:06.642Z,11.90
2018-01-04T18:04:34.197Z,11.90
2018-01-04T18:07:01.755Z,12.00
2018-01-04T18:09:29.220Z,12.00
2018-01-04T18:11:57.500Z,12.00
2018-01-04T18:14:25.065Z,12.00
2018-01-04T18:16:52.696Z,12.00
2018-01-04T18:19:20.584Z,12.00
2018-01-04T18:21:48.167Z,12.00
2018-01-04T18:24:17.508Z,12.00
2018-01-04T18:26:45.089Z,12.00
2018-01-04T18:29:12.676Z,12.00
2018-01-04T18:31:40.183Z,12.00
2018-01-04T18:34:07.722Z,12.00
2018-01-04T18:36:35.332Z,12.00
2018-01-04T18:39:02.878Z,12.00
2018-01-04T18:41:30.401Z,12.00
2018-01-04T18:43:58.040Z,12.00
2018-01-04T18:46:25.557Z,11.90
2018-01-04T18:48:53.070Z,11.90
2018-01-04T18:51:20.615Z,11.90
2018-01-04T18:53:48.989Z,11.90
2018-01-04T18:56:16.504Z,11.90
2018-01-04T18:58:44.038Z,11.90
2018-01-04T19:01:12.376Z,11.90
2018-01-04T19:03:39.917Z,11.90
2018-01-04T19:06:08.136Z,12.10
2018-01-04T19:08:35.967Z,12.20
2018-01-04T19:11:03.522Z,12.20
2018-01-04T19:13:31.032Z,12.20
2018-01-04T19:15:58.549Z,12.10
2018-01-04T19:18:26.621Z,12.00
2018-01-04T19:20:54.106Z,12.00
2018-01-04T19:23:21.561Z,12.00
2018-01-04T19:25:49.100Z,12.00
2018-01-04T19:28:16.616Z,12.00
2018-01-04T19:30:47.158Z,12.00
2018-01-04T19:33:14.687Z,12.00
2018-01-04T19:35:42.209Z,12.00
2018-01-04T19:38:10.509Z,12.00
2018-01-04T19:40:38.077Z,12.00
2018-01-04T19:43:05.614Z,12.00
2018-01-04T19:45:33.909Z,12.00
2018-01-04T19:48:01.516Z,12.00
2018-01-04T19:50:29.034Z,12.00
2018-01-04T19:52:57.344Z,12.00
2018-01-04T19:55:25.547Z,12.00
2018-01-04T19:57:53.102Z,12.00
2018-01-04T20:00:20.756Z,12.00
2018-01-04T20:02:48.281Z,12.00
2018-01-04T20:05:16.633Z,11.70
2018-01-04T20:07:44.181Z,11.70
2018-01-04T20:10:11.657Z,11.40
2018-01-04T20:12:39.178Z,11.20
2018-01-04T20:15:06.693Z,11.10
2018-01-04T20:17:34.236Z,10.90
2018-01-04T20:20:01.769Z,10.70
2018-01-04T20:22:29.286Z,10.70
2018-01-04T20:24:56.821Z,10.80
2018-01-04T20:27:25.104Z,10.80
2018-01-04T20:29:53.308Z,10.80
2018-01-04T20:32:20.820Z,10.80
2018-01-04T20:34:48.374Z,10.70
2018-01-04T20:37:19.631Z,10.80
2018-01-04T20:39:47.882Z,10.80
2018-01-04T20:42:15.413Z,10.80
2018-01-04T20:44:42.912Z,10.80
2018-01-04T20:47:10.426Z,10.80
2018-01-04T20:49:37.965Z,10.90
2018-01-04T20:52:05.496Z,10.90
2018-01-04T20:54:33.065Z,11.00
2018-01-04T20:57:00.596Z,11.00
2018-01-04T20:59:28.158Z,10.90
2018-01-04T21:01:55.678Z,11.00
2018-01-04T21:04:23.966Z,11.00
2018-01-04T21:06:51.504Z,11.00
2018-01-04T21:09:19.048Z,10.90
2018-01-04T21:11:46.601Z,10.80
2018-01-04T21:14:14.166Z,10.70
2018-01-04T21:16:41.697Z,10.70
2018-01-04T21:19:09.242Z,10.60
2018-01-04T21:21:36.761Z,10.50
2018-01-04T21:24:04.276Z,10.50
2018-01-04T21:26:31.788Z,10.50
2018-01-04T21:28:59.308Z,10.50
2018-01-04T21:31:27.590Z,10.50
2018-01-04T21:33:55.129Z,10.40
2018-01-04T21:36:22.676Z,10.40
2018-01-04T21:38:50.204Z,10.40
2018-01-04T21:41:17.709Z,10.40
2018-01-04T21:43:45.244Z,10.40
2018-01-04T21:46:12.879Z,10.30
2018-01-04T21:48:40.444Z,10.20
2018-01-04T21:51:07.959Z,10.20
2018-01-04T21:53:35.576Z,10.20
2018-01-04T21:56:03.209Z,10.20
2018-01-04T21:58:30.752Z,10.10
2018-01-04T22:00:58.293Z,10.10
2018-01-04T22:03:25.819Z,10.10
2018-01-04T22:05:53.365Z,10.10
2018-01-04T22:08:20.894Z,10.10
2018-01-04T22:10:48.417Z,10.10
2018-01-04T22:13:15.950Z,10.10
2018-01-04T22:15:43.498Z,10.00
2018-01-04T22:18:11.041Z,10.10
2018-01-04T22:20:38.560Z,10.00
2018-01-04T22:23:12.371Z,10.00
2018-01-04T22:25:40.675Z,10.00
2018-01-04T22:28:08.198Z,9.90
2018-01-04T22:30:35.725Z,10.00
2018-01-04T22:33:03.385Z,9.90
2018-01-04T22:35:30.938Z,9.90
2018-01-04T22:37:58.454Z,9.90
2018-01-04T22:40:25.971Z,9.90
2018-01-04T22:42:53.487Z,9.90
2018-01-04T22:45:23.084Z,9.80
2018-01-04T22:47:50.607Z,9.80
2018-01-04T22:50:18.171Z,9.80
2018-01-04T22:52:45.680Z,9.70
2018-01-04T22:55:13.198Z,9.80
2018-01-04T22:57:40.786Z,9.70
2018-01-04T23:00:08.308Z,9.60
2018-01-04T23:02:35.842Z,9.70
2018-01-04T23:05:03.384Z,9.70
2018-01-04T23:07:30.968Z,9.70
2018-01-04T23:09:58.554Z,9.70
2018-01-04T23:12:26.194Z,9.70
2018-01-04T23:14:53.741Z,9.70
2018-01-04T23:17:21.416Z,9.70
2018-01-04T23:19:48.953Z,9.70
2018-01-04T23:22:16.490Z,9.80
2018-01-04T23:24:44.049Z,9.70
2018-01-04T23:27:11.555Z,9.80
2018-01-04T23:29:42.861Z,9.80
2018-01-04T23:32:10.360Z,9.80
2018-01-04T23:34:38.624Z,9.90
2018-01-04T23:37:10.571Z,9.90
2018-01-04T23:39:42.447Z,9.90
2018-01-04T23:42:09.961Z,9.90
2018-01-04T23:44:37.485Z,9.90
2018-01-04T23:47:05.771Z,9.70
2018-01-04T23:49:35.030Z,9.70
2018-01-04T23:52:02.546Z,9.70
2018-01-04T23:54:30.090Z,9.70
2018-01-04T23:56:59.543Z,9.70
2018-01-04T23:59:26.996Z,9.60
